createdAt,value
2017-11-20T00:00:50.867Z,100434.66
2017-11-20T00:03:19.223Z,100434.23
2017-11-20T00:05:53.052Z,100441.21
2017-11-20T00:08:21.375Z,100444.67
2017-11-20T00:10:49.722Z,100445.51
2017-11-20T00:13:18.035Z,100452.50
2017-11-20T00:15:46.389Z,100449.88
2017-11-20T00:18:14.735Z,100457.70
2017-11-20T00:20:43.066Z,100467.30
2017-11-20T00:23:12.188Z,100472.97
2017-11-20T00:25:40.542Z,100473.81
2017-11-20T00:28:09.663Z,100473.83
2017-11-20T00:30:37.982Z,100481.22
2017-11-20T00:33:06.350Z,100488.22
2017-11-20T00:35:34.675Z,100498.27
2017-11-20T00:38:03.800Z,100507.87
2017-11-20T00:40:33.246Z,100515.30
2017-11-20T00:43:01.563Z,100510.05
2017-11-20T00:45:29.928Z,100515.64
2017-11-20T00:47:59.013Z,100514.77
2017-11-20T00:50:27.338Z,100524.75
2017-11-20T00:52:55.685Z,100526.93
2017-11-20T00:55:24.442Z,100529.17
2017-11-20T00:57:52.803Z,100531.73
2017-11-20T01:00:21.999Z,100532.13
2017-11-20T01:02:51.082Z,100538.23
2017-11-20T01:05:19.834Z,100537.84
2017-11-20T01:07:48.921Z,100539.15
2017-11-20T01:10:18.051Z,100546.14
2017-11-20T01:12:47.773Z,100541.73
2017-11-20T01:15:16.142Z,100544.34
2017-11-20T01:17:44.477Z,100545.69
2017-11-20T01:20:13.568Z,100551.73
2017-11-20T01:22:42.330Z,100552.55
2017-11-20T01:25:12.022Z,100549.06
2017-11-20T01:27:40.770Z,100555.08
2017-11-20T01:30:09.082Z,100558.58
2017-11-20T01:32:37.446Z,100563.80
2017-11-20T01:35:06.539Z,100573.45
2017-11-20T01:37:35.290Z,100567.38
2017-11-20T01:40:04.366Z,100566.82
2017-11-20T01:42:32.718Z,100578.55
2017-11-20T01:45:01.066Z,100581.61
2017-11-20T01:47:29.822Z,100575.06
2017-11-20T01:49:58.912Z,100574.56
2017-11-20T01:52:27.266Z,100585.95
2017-11-20T01:54:55.666Z,100588.06
2017-11-20T01:57:23.999Z,100596.80
2017-11-20T01:59:52.363Z,100601.34
2017-11-20T02:02:20.683Z,100598.45
2017-11-20T02:04:49.042Z,100601.39
2017-11-20T02:07:17.420Z,100604.14
2017-11-20T02:09:45.750Z,100616.30
2017-11-20T02:12:14.866Z,100614.59
2017-11-20T02:14:43.222Z,100611.02
2017-11-20T02:17:12.315Z,100621.02
2017-11-20T02:19:41.437Z,100615.75
2017-11-20T02:22:09.753Z,100626.58
2017-11-20T02:24:38.125Z,100627.86
2017-11-20T02:27:06.450Z,100629.16
2017-11-20T02:29:34.778Z,100629.09
2017-11-20T02:32:03.546Z,100626.95
2017-11-20T02:34:32.990Z,100632.55
2017-11-20T02:37:02.102Z,100630.27
2017-11-20T02:39:30.416Z,100632.52
2017-11-20T02:41:58.725Z,100637.75
2017-11-20T02:44:27.826Z,100641.56
2017-11-20T02:46:56.181Z,100647.55
2017-11-20T02:49:24.551Z,100646.13
2017-11-20T02:51:53.634Z,100649.66
2017-11-20T02:54:21.948Z,100649.69
2017-11-20T02:56:50.710Z,100651.70
2017-11-20T02:59:19.068Z,100659.53
2017-11-20T03:01:47.405Z,100649.39
2017-11-20T03:04:15.793Z,100649.69
2017-11-20T03:06:44.133Z,100653.19
2017-11-20T03:09:12.460Z,100656.49
2017-11-20T03:11:42.193Z,100655.17
2017-11-20T03:14:10.518Z,100651.34
2017-11-20T03:16:38.842Z,100656.03
2017-11-20T03:19:07.213Z,100658.91
2017-11-20T03:21:35.556Z,100665.98
2017-11-20T03:24:03.865Z,100664.35
2017-11-20T03:26:32.176Z,100670.05
2017-11-20T03:29:00.506Z,100674.41
2017-11-20T03:31:29.584Z,100671.64
2017-11-20T03:33:58.709Z,100677.61
2017-11-20T03:36:27.027Z,100674.82
2017-11-20T03:38:55.466Z,100665.25
2017-11-20T03:41:24.221Z,100664.06
2017-11-20T03:43:54.084Z,100673.41
2017-11-20T03:46:22.425Z,100679.25
2017-11-20T03:48:51.513Z,100681.72
2017-11-20T03:51:19.904Z,100682.16
2017-11-20T03:53:48.621Z,100680.59
2017-11-20T03:56:16.954Z,100681.26
2017-11-20T03:58:45.312Z,100676.89
2017-11-20T04:01:13.637Z,100672.39
2017-11-20T04:03:41.992Z,100682.55
2017-11-20T04:06:11.140Z,100683.80
2017-11-20T04:08:39.507Z,100687.59
2017-11-20T04:11:08.640Z,100686.66
2017-11-20T04:13:36.988Z,100686.16
2017-11-20T04:16:05.334Z,100690.09
2017-11-20T04:18:34.072Z,100688.17
2017-11-20T04:21:02.417Z,100684.36
2017-11-20T04:23:30.737Z,100686.58
2017-11-20T04:25:59.030Z,100681.09
2017-11-20T04:28:27.368Z,100678.30
2017-11-20T04:30:57.589Z,100661.09
2017-11-20T04:33:25.916Z,100663.44
2017-11-20T04:35:55.001Z,100660.92
2017-11-20T04:38:23.715Z,100661.02
2017-11-20T04:40:52.037Z,100662.86
2017-11-20T04:43:20.325Z,100649.02
2017-11-20T04:45:49.407Z,100660.50
2017-11-20T04:48:17.728Z,100661.47
2017-11-20T04:50:46.809Z,100657.63
2017-11-20T04:53:15.109Z,100661.63
2017-11-20T04:55:43.436Z,100668.22
2017-11-20T04:58:11.728Z,100669.61
2017-11-20T05:00:40.788Z,100673.12
2017-11-20T05:03:09.220Z,100656.98
2017-11-20T05:05:37.568Z,100659.15
2017-11-20T05:08:07.376Z,100656.16
2017-11-20T05:10:35.732Z,100660.16
2017-11-20T05:13:04.053Z,100665.44
2017-11-20T05:15:33.157Z,100662.01
2017-11-20T05:18:01.850Z,100661.27
2017-11-20T05:20:30.911Z,100662.62
2017-11-20T05:22:59.646Z,100660.42
2017-11-20T05:25:27.959Z,100656.13
2017-11-20T05:27:56.275Z,100657.91
2017-11-20T05:30:25.367Z,100661.02
2017-11-20T05:32:53.804Z,100662.75
2017-11-20T05:35:22.856Z,100664.05
2017-11-20T05:37:51.156Z,100666.68
2017-11-20T05:40:19.463Z,100660.13
2017-11-20T05:42:47.768Z,100664.08
2017-11-20T05:45:16.315Z,100664.95
2017-11-20T05:47:45.416Z,100671.96
2017-11-20T05:50:13.794Z,100666.73
2017-11-20T05:52:42.281Z,100668.05
2017-11-20T05:55:10.615Z,100667.14
2017-11-20T05:57:38.917Z,100674.19
2017-11-20T06:00:07.261Z,100668.06
2017-11-20T06:02:35.565Z,100669.84
2017-11-20T06:05:04.753Z,100677.73
2017-11-20T06:07:33.082Z,100679.07
2017-11-20T06:10:01.376Z,100674.30
2017-11-20T06:12:30.472Z,100678.25
2017-11-20T06:14:59.529Z,100683.02
2017-11-20T06:17:27.822Z,100680.85
2017-11-20T06:19:56.922Z,100680.39
2017-11-20T06:22:26.015Z,100687.42
2017-11-20T06:24:55.207Z,100690.95
2017-11-20T06:27:23.535Z,100693.98
2017-11-20T06:29:51.876Z,100695.28
2017-11-20T06:32:20.939Z,100696.57
2017-11-20T06:34:49.275Z,100706.64
2017-11-20T06:37:18.330Z,100709.73
2017-11-20T06:39:46.644Z,100708.44
2017-11-20T06:42:14.948Z,100711.95
2017-11-20T06:44:43.282Z,100716.75
2017-11-20T06:47:11.975Z,100717.63
2017-11-20T06:49:40.698Z,100714.19
2017-11-20T06:52:08.992Z,100710.67
2017-11-20T06:54:37.292Z,100715.06
2017-11-20T06:57:06.395Z,100712.42
2017-11-20T06:59:35.467Z,100718.14
2017-11-20T07:02:03.787Z,100715.52
2017-11-20T07:04:32.888Z,100716.38
2017-11-20T07:07:01.219Z,100728.66
2017-11-20T07:09:29.544Z,100723.41
2017-11-20T07:11:57.855Z,100726.05
2017-11-20T07:14:26.195Z,100728.24
2017-11-20T07:16:54.491Z,100728.27
2017-11-20T07:19:22.854Z,100727.40
2017-11-20T07:21:51.140Z,100719.08
2017-11-20T07:24:19.435Z,100724.30
2017-11-20T07:27:02.402Z,100725.20
2017-11-20T07:29:48.391Z,100725.19
2017-11-20T07:32:17.455Z,100724.75
2017-11-20T07:34:57.620Z,100722.13
2017-11-20T07:40:56.427Z,100720.79
2017-11-20T07:43:25.122Z,100723.41
2017-11-20T07:45:54.239Z,100721.23
2017-11-20T07:48:22.543Z,100727.79
2017-11-20T07:50:50.890Z,100726.48
2017-11-20T07:53:19.184Z,100732.61
2017-11-20T07:55:47.480Z,100731.75
2017-11-20T07:58:15.831Z,100737.00
2017-11-20T08:00:44.123Z,100735.67
2017-11-20T08:03:12.435Z,100733.50
2017-11-20T08:05:40.767Z,100739.17
2017-11-20T08:08:09.063Z,100744.87
2017-11-20T08:10:37.374Z,100739.63
2017-11-20T08:13:06.579Z,100742.27
2017-11-20T08:15:35.708Z,100746.23
2017-11-20T08:18:04.032Z,100745.77
2017-11-20T08:20:32.340Z,100752.34
2017-11-20T08:23:01.156Z,100754.52
2017-11-20T08:25:29.472Z,100742.70
2017-11-20T08:27:57.779Z,100753.23
2017-11-20T08:30:26.868Z,100756.72
2017-11-20T08:32:55.980Z,100761.09
2017-11-20T08:35:25.080Z,100760.21
2017-11-20T08:37:53.789Z,100764.59
2017-11-20T08:40:22.091Z,100764.14
2017-11-20T08:42:51.199Z,100763.27
2017-11-20T08:45:19.510Z,100760.20
2017-11-20T08:47:48.613Z,100758.85
2017-11-20T08:50:16.978Z,100768.04
2017-11-20T08:52:46.078Z,100767.63
2017-11-20T08:55:14.815Z,100766.34
2017-11-20T08:57:43.554Z,100762.39
2017-11-20T09:00:11.890Z,100765.47
2017-11-20T09:02:40.190Z,100767.20
2017-11-20T09:05:08.918Z,100765.02
2017-11-20T09:07:37.582Z,100771.58
2017-11-20T09:10:05.930Z,100768.08
2017-11-20T09:12:34.242Z,100772.42
2017-11-20T09:15:02.579Z,100766.27
2017-11-20T09:17:30.882Z,100762.71
2017-11-20T09:19:59.992Z,100763.95
2017-11-20T09:22:28.316Z,100767.09
2017-11-20T09:24:57.454Z,100762.77
2017-11-20T09:27:26.196Z,100761.44
2017-11-20T09:29:54.502Z,100768.87
2017-11-20T09:32:23.337Z,100762.30
2017-11-20T09:34:51.641Z,100759.58
2017-11-20T09:37:19.966Z,100761.33
2017-11-20T09:39:48.254Z,100766.59
2017-11-20T09:42:16.583Z,100759.97
2017-11-20T09:44:44.887Z,100757.30
2017-11-20T09:47:13.638Z,100763.09
2017-11-20T09:49:42.329Z,100756.10
2017-11-20T09:52:10.665Z,100765.31
2017-11-20T09:54:39.785Z,100762.56
2017-11-20T09:57:08.124Z,100770.33
2017-11-20T09:59:36.439Z,100763.65
2017-11-20T10:02:04.781Z,100769.18
2017-11-20T10:04:33.086Z,100764.96
2017-11-20T10:07:01.419Z,100772.95
2017-11-20T10:09:30.130Z,100769.29
2017-11-20T10:11:59.215Z,100770.39
2017-11-20T10:14:27.519Z,100752.13
2017-11-20T10:16:55.861Z,100759.59
2017-11-20T10:19:24.554Z,100762.37
2017-11-20T10:21:53.642Z,100766.90
2017-11-20T10:24:22.337Z,100757.38
2017-11-20T10:26:50.669Z,100758.80
2017-11-20T10:29:18.980Z,100771.98
2017-11-20T10:31:47.716Z,100763.97
2017-11-20T10:34:16.023Z,100763.14
2017-11-20T10:36:44.346Z,100758.38
2017-11-20T10:39:13.433Z,100757.31
2017-11-20T10:41:41.771Z,100762.64
2017-11-20T10:44:10.873Z,100765.70
2017-11-20T10:46:39.197Z,100763.09
2017-11-20T10:49:07.529Z,100757.69
2017-11-20T10:51:35.850Z,100762.66
2017-11-20T10:54:04.182Z,100764.21
2017-11-20T10:56:33.997Z,100763.38
2017-11-20T10:59:02.321Z,100754.51
2017-11-20T11:01:30.646Z,100754.09
2017-11-20T11:03:58.961Z,100751.09
2017-11-20T11:06:28.069Z,100753.09
2017-11-20T11:08:56.379Z,100754.42
2017-11-20T11:11:24.717Z,100751.09
2017-11-20T11:13:53.023Z,100753.27
2017-11-20T11:16:22.130Z,100755.23
2017-11-20T11:18:51.237Z,100756.98
2017-11-20T11:21:19.549Z,100750.38
2017-11-20T11:23:47.889Z,100752.50
2017-11-20T11:26:16.965Z,100747.48
2017-11-20T11:28:45.294Z,100749.31
2017-11-20T11:31:13.627Z,100752.98
2017-11-20T11:33:42.753Z,100746.56
2017-11-20T11:36:11.077Z,100750.16
2017-11-20T11:38:39.381Z,100751.52
2017-11-20T11:41:08.493Z,100750.64
2017-11-20T11:43:36.782Z,100738.60
2017-11-20T11:46:05.091Z,100742.09
2017-11-20T11:48:33.429Z,100738.67
2017-11-20T11:51:01.741Z,100744.28
2017-11-20T11:53:30.490Z,100747.80
2017-11-20T11:55:59.590Z,100737.45
2017-11-20T11:58:27.897Z,100739.81
2017-11-20T12:00:56.221Z,100742.64
2017-11-20T12:03:25.308Z,100746.22
2017-11-20T12:05:54.426Z,100735.69
2017-11-20T12:08:22.716Z,100744.05
2017-11-20T12:10:51.853Z,100745.00
2017-11-20T12:13:20.181Z,100748.59
2017-11-20T12:15:48.511Z,100745.08
2017-11-20T12:18:17.213Z,100749.47
2017-11-20T12:20:45.577Z,100746.88
2017-11-20T12:23:13.869Z,100746.13
2017-11-20T12:25:42.585Z,100738.55
2017-11-20T12:28:10.925Z,100746.45
2017-11-20T12:30:39.641Z,100745.14
2017-11-20T12:33:07.974Z,100742.06
2017-11-20T12:35:36.273Z,100735.84
2017-11-20T12:38:04.653Z,100741.04
2017-11-20T12:40:32.958Z,100749.77
2017-11-20T12:43:01.308Z,100737.52
2017-11-20T12:45:29.650Z,100744.05
2017-11-20T12:47:57.985Z,100741.86
2017-11-20T12:50:26.714Z,100740.50
2017-11-20T12:52:55.053Z,100744.01
2017-11-20T12:55:23.385Z,100751.03
2017-11-20T12:57:51.724Z,100744.12
2017-11-20T13:00:20.029Z,100746.27
2017-11-20T13:02:48.785Z,100742.29
2017-11-20T13:05:17.112Z,100735.66
2017-11-20T13:07:45.428Z,100731.64
2017-11-20T13:10:13.756Z,100735.98
2017-11-20T13:12:42.845Z,100729.34
2017-11-20T13:15:11.188Z,100727.41
2017-11-20T13:17:39.492Z,100732.09
2017-11-20T13:20:07.789Z,100732.61
2017-11-20T13:22:36.160Z,100731.85
2017-11-20T13:25:04.484Z,100730.77
2017-11-20T13:27:33.573Z,100726.45
2017-11-20T13:30:02.296Z,100729.87
2017-11-20T13:32:30.986Z,100719.27
2017-11-20T13:34:59.304Z,100724.17
2017-11-20T13:37:28.372Z,100728.20
2017-11-20T13:39:56.692Z,100725.19
2017-11-20T13:42:25.045Z,100728.38
2017-11-20T13:44:54.121Z,100730.58
2017-11-20T13:47:22.844Z,100729.70
2017-11-20T13:49:51.587Z,100729.70
2017-11-20T13:52:20.296Z,100731.08
2017-11-20T13:54:48.620Z,100734.66
2017-11-20T13:57:16.911Z,100732.48
2017-11-20T13:59:45.256Z,100729.94
2017-11-20T14:02:13.950Z,100723.80
2017-11-20T14:04:42.299Z,100720.73
2017-11-20T14:07:11.368Z,100720.78
2017-11-20T14:09:39.739Z,100715.08
2017-11-20T14:12:08.080Z,100710.70
2017-11-20T14:14:36.415Z,100714.20
2017-11-20T14:17:04.778Z,100714.20
2017-11-20T14:19:33.108Z,100715.58
2017-11-20T14:22:01.431Z,100720.40
2017-11-20T14:24:30.162Z,100709.44
2017-11-20T14:26:58.853Z,100717.86
2017-11-20T14:29:27.185Z,100711.72
2017-11-20T14:31:55.505Z,100713.08
2017-11-20T14:34:23.850Z,100716.20
2017-11-20T14:36:52.194Z,100710.89
2017-11-20T14:39:20.492Z,100713.09
2017-11-20T14:41:50.331Z,100720.61
2017-11-20T14:44:21.285Z,100718.42
2017-11-20T14:46:51.467Z,100716.19
2017-11-20T14:49:19.789Z,100715.32
2017-11-20T14:51:52.412Z,100710.12
2017-11-20T14:54:20.725Z,100709.25
2017-11-20T14:56:49.849Z,100713.25
2017-11-20T14:59:18.271Z,100714.57
2017-11-20T15:01:53.821Z,100714.16
2017-11-20T15:04:22.153Z,100706.73
2017-11-20T15:06:50.476Z,100716.81
2017-11-20T15:09:19.556Z,100710.25
2017-11-20T15:11:48.843Z,100716.39
2017-11-20T15:14:17.139Z,100716.81
2017-11-20T15:16:45.483Z,100717.70
2017-11-20T15:19:14.543Z,100717.72
2017-11-20T15:21:43.732Z,100719.94
2017-11-20T15:24:12.075Z,100717.73
2017-11-20T15:26:41.263Z,100714.69
2017-11-20T15:29:09.625Z,100719.95
2017-11-20T15:31:37.957Z,100725.64
2017-11-20T15:34:07.085Z,100729.11
2017-11-20T15:36:35.412Z,100726.08
2017-11-20T15:39:03.711Z,100720.37
2017-11-20T15:41:32.820Z,100723.87
2017-11-20T15:44:01.889Z,100727.82
2017-11-20T15:46:30.985Z,100726.95
2017-11-20T15:49:00.088Z,100719.94
2017-11-20T15:51:29.177Z,100724.73
2017-11-20T15:53:57.534Z,100725.15
2017-11-20T15:56:25.983Z,100718.55
2017-11-20T15:58:54.287Z,100721.19
2017-11-20T16:01:22.637Z,100729.07
2017-11-20T16:03:51.055Z,100724.69
2017-11-20T16:06:19.946Z,100722.95
2017-11-20T16:08:48.294Z,100722.05
2017-11-20T16:11:16.615Z,100719.86
2017-11-20T16:13:46.559Z,100730.81
2017-11-20T16:16:16.237Z,100725.55
2017-11-20T16:18:45.343Z,100732.14
2017-11-20T16:21:14.832Z,100731.66
2017-11-20T16:23:43.572Z,100742.59
2017-11-20T16:26:12.731Z,100730.34
2017-11-20T16:28:41.454Z,100736.05
2017-11-20T16:31:10.211Z,100732.97
2017-11-20T16:33:38.959Z,100731.20
2017-11-20T16:36:07.259Z,100734.72
2017-11-20T16:38:36.740Z,100726.41
2017-11-20T16:41:06.011Z,100729.91
2017-11-20T16:43:34.522Z,100731.22
2017-11-20T16:46:02.892Z,100731.64
2017-11-20T16:48:31.659Z,100730.78
2017-11-20T16:50:59.983Z,100723.78
2017-11-20T16:53:29.858Z,100719.41
2017-11-20T16:55:58.203Z,100722.45
2017-11-20T16:58:44.014Z,100724.22
2017-11-20T17:01:12.349Z,100717.66
2017-11-20T17:03:41.071Z,100721.17
2017-11-20T17:06:09.480Z,100725.57
2017-11-20T17:08:38.974Z,100725.58
2017-11-20T17:11:07.290Z,100726.45
2017-11-20T17:13:35.633Z,100723.81
2017-11-20T17:16:03.947Z,100723.39
2017-11-20T17:18:32.318Z,100721.64
2017-11-20T17:21:01.779Z,100723.40
2017-11-20T17:23:30.579Z,100719.00
2017-11-20T17:25:59.733Z,100722.50
2017-11-20T17:28:28.056Z,100722.08
2017-11-20T17:30:56.480Z,100717.23
2017-11-20T17:33:25.575Z,100721.63
2017-11-20T17:35:53.905Z,100717.70
2017-11-20T17:38:22.406Z,100722.53
2017-11-20T17:40:53.688Z,100714.63
2017-11-20T17:43:23.274Z,100716.81
2017-11-20T17:45:53.007Z,100718.13
2017-11-20T17:48:22.091Z,100720.74
2017-11-20T17:50:51.287Z,100717.67
2017-11-20T17:53:20.858Z,100716.81
2017-11-20T17:55:50.854Z,100719.44
2017-11-20T17:58:19.678Z,100715.95
2017-11-20T18:00:49.148Z,100722.52
2017-11-20T18:03:17.586Z,100725.58
2017-11-20T18:05:47.434Z,100722.94
2017-11-20T18:08:15.814Z,100718.59
2017-11-20T18:10:44.930Z,100717.23
2017-11-20T18:13:14.046Z,100715.95
2017-11-20T18:15:43.133Z,100711.13
2017-11-20T18:18:11.487Z,100708.95
2017-11-20T18:20:40.237Z,100708.94
2017-11-20T18:23:08.650Z,100703.68
2017-11-20T18:25:37.026Z,100702.79
2017-11-20T18:28:05.754Z,100702.83
2017-11-20T18:30:37.038Z,100706.31
2017-11-20T18:33:05.962Z,100704.13
2017-11-20T18:35:35.155Z,100703.27
2017-11-20T18:38:04.313Z,100703.69
2017-11-20T18:40:33.452Z,100712.89
2017-11-20T18:43:02.498Z,100707.63
2017-11-20T18:45:33.050Z,100710.26
2017-11-20T18:50:40.529Z,100715.03
2017-11-20T18:53:08.905Z,100712.43
2017-11-20T18:55:37.237Z,100711.09
2017-11-20T18:58:07.380Z,100706.73
2017-11-20T19:00:55.333Z,100708.90
2017-11-20T19:03:29.983Z,100711.95
2017-11-20T19:09:20.478Z,100716.34
2017-11-20T19:11:51.029Z,100718.48
2017-11-20T19:14:19.490Z,100718.52
2017-11-20T19:19:53.072Z,100721.56
2017-11-20T19:25:01.225Z,100722.85
2017-11-20T19:27:31.183Z,100722.87
2017-11-20T19:30:00.144Z,100721.14
2017-11-20T19:32:29.598Z,100725.11
2017-11-20T19:34:59.350Z,100720.66
2017-11-20T19:37:28.057Z,100716.27
2017-11-20T19:39:56.371Z,100716.70
2017-11-20T19:42:25.168Z,100717.16
2017-11-20T19:44:53.500Z,100718.45
2017-11-20T19:47:23.386Z,100711.91
2017-11-20T19:49:51.698Z,100718.50
2017-11-20T19:52:20.400Z,100720.70
2017-11-20T19:54:50.311Z,100721.55
2017-11-20T19:57:21.584Z,100725.92
2017-11-20T19:59:51.068Z,100722.38
2017-11-20T20:02:20.369Z,100728.50
2017-11-20T20:04:50.344Z,100725.86
2017-11-20T20:07:20.152Z,100728.92
2017-11-20T20:09:48.491Z,100718.45
2017-11-20T20:12:17.258Z,100721.06
2017-11-20T20:17:57.969Z,100716.22
2017-11-20T20:20:26.409Z,100710.52
2017-11-20T20:22:57.232Z,100706.57
2017-11-20T20:25:25.601Z,100709.17
2017-11-20T20:27:55.660Z,100714.41
2017-11-20T20:30:24.277Z,100708.33
2017-11-20T20:32:53.436Z,100709.20
2017-11-20T20:35:22.573Z,100708.74
2017-11-20T20:37:53.896Z,100708.31
2017-11-20T20:40:22.278Z,100703.47
2017-11-20T20:42:51.413Z,100710.06
2017-11-20T20:45:22.130Z,100709.61
2017-11-20T20:47:52.818Z,100705.25
2017-11-20T20:50:21.209Z,100708.72
2017-11-20T20:52:50.669Z,100715.26
2017-11-20T20:55:19.000Z,100703.89
2017-11-20T20:57:50.033Z,100697.78
2017-11-20T21:00:18.475Z,100697.78
2017-11-20T21:02:49.335Z,100699.97
2017-11-20T21:05:19.189Z,100698.65
2017-11-20T21:07:49.697Z,100697.34
2017-11-20T21:10:24.352Z,100700.38
2017-11-20T21:12:53.445Z,100692.99
2017-11-20T21:15:21.762Z,100690.79
2017-11-20T21:17:50.497Z,100687.72
2017-11-20T21:20:19.573Z,100682.91
2017-11-20T21:22:49.439Z,100680.27
2017-11-20T21:25:18.231Z,100689.35
2017-11-20T21:27:46.646Z,100683.23
2017-11-20T21:30:15.762Z,100683.27
2017-11-20T21:32:45.465Z,100658.69
2017-11-20T21:35:14.988Z,100677.57
2017-11-20T21:37:44.163Z,100679.37
2017-11-20T21:40:13.284Z,100678.91
2017-11-20T21:42:42.392Z,100684.16
2017-11-20T21:45:10.721Z,100684.11
2017-11-20T21:47:39.052Z,100680.23
2017-11-20T21:50:07.350Z,100682.41
2017-11-20T21:52:35.680Z,100680.70
2017-11-20T21:55:04.758Z,100671.05
2017-11-20T21:57:33.096Z,100660.53
2017-11-20T22:00:01.397Z,100650.06
2017-11-20T22:02:29.728Z,100657.52
2017-11-20T22:04:58.476Z,100647.50
2017-11-20T22:07:27.181Z,100644.44
2017-11-20T22:09:56.756Z,100643.17
2017-11-20T22:12:39.761Z,100643.16
2017-11-20T22:15:08.104Z,100643.59
2017-11-20T22:17:36.409Z,100640.98
2017-11-20T22:20:04.769Z,100626.11
2017-11-20T22:22:33.100Z,100634.84
2017-11-20T22:25:01.422Z,100634.84
2017-11-20T22:27:29.739Z,100628.70
2017-11-20T22:29:59.541Z,100624.81
2017-11-20T22:32:28.269Z,100628.28
2017-11-20T22:34:58.151Z,100628.73
2017-11-20T22:37:27.257Z,100626.55
2017-11-20T22:39:55.561Z,100625.20
2017-11-20T22:42:24.666Z,100630.91
2017-11-20T22:44:52.983Z,100629.63
2017-11-20T22:47:21.281Z,100625.28
2017-11-20T22:49:49.612Z,100623.56
2017-11-20T22:52:18.708Z,100617.44
2017-11-20T22:54:47.053Z,100616.59
2017-11-20T22:57:15.805Z,100615.29
2017-11-20T22:59:44.127Z,100613.96
2017-11-20T23:02:12.492Z,100613.97
2017-11-20T23:04:40.816Z,100607.83
2017-11-20T23:07:09.540Z,100612.16
2017-11-20T23:09:38.626Z,100608.70
2017-11-20T23:12:06.966Z,100600.35
2017-11-20T23:14:36.079Z,100593.83
2017-11-20T23:17:04.832Z,100589.03
2017-11-20T23:19:33.186Z,100584.21
2017-11-20T23:22:02.248Z,100580.25
2017-11-20T23:24:30.950Z,100586.80
2017-11-20T23:26:59.277Z,100587.68
2017-11-20T23:29:27.591Z,100583.28
2017-11-20T23:31:56.337Z,100588.95
2017-11-20T23:34:24.644Z,100581.52
2017-11-20T23:36:53.619Z,100590.65
2017-11-20T23:39:21.950Z,100591.55
2017-11-20T23:41:51.019Z,100594.19
2017-11-20T23:44:20.491Z,100598.97
2017-11-20T23:46:48.789Z,100596.73
2017-11-20T23:49:17.122Z,100601.60
2017-11-20T23:51:45.428Z,100598.55
2017-11-20T23:54:14.903Z,100588.94
2017-11-20T23:56:43.223Z,100583.27
2017-11-20T23:59:11.571Z,100572.80
